Suederoog — ZDHC8 — position and weather

sailwx.info

Track history (hours):
 
Tides and Currents Weather Stations Pressure Air Temp Water Temp Dewpoint Dewpoint Depression Visibility Wind Speed Wind Dir Waves Ship Positions

Suederoog

Last reported at 2014-Oct-01 02:27 UTC. Time now 2014-Oct-01 10:24 UTC.
Position N 56°25' E 011°30'.

Length 161 m; draft 10.6 m.

Type: Ship (hazmat cat A). MMSI: 236300000.

Date/timePositionNaut miles runAvg speedWind from/ knotsBaromVisibWave heightAir tempDewpointWater temp
2014-Oct-01 02:27N 56°25' E 011°30'1517.1
2014-Oct-01 01:33N 56°38' E 011°43'1615.7
2014-Oct-01 00:33N 56°54' E 011°46'1717.4
2014-Sep-30 23:33N 57°10' E 011°35'1817.6
2014-Sep-30 22:33N 57°26' E 011°24'1717.3
2014-Sep-30 21:34N 57°39' E 011°01'1716.5
2014-Sep-30 20:33N 57°47' E 010°34'1917.7
2014-Sep-30 19:29N 57°47' E 009°59'16516.6
2014-Sep-30 09:33N 55°32' E 007°06'1817.8
2014-Sep-30 08:33N 55°15' E 007°06'1817.8
2014-Sep-30 07:33N 54°57' E 007°06'2518.0
2014-Sep-30 06:10N 54°32' E 007°12'1117.8
2014-Sep-30 05:33N 54°23' E 007°22'1818.0
2014-Sep-30 04:33N 54°09' E 007°41'1817.6
2014-Sep-30 03:33N 54°01' E 008°08'1414.3
2014-Sep-30 02:33N 53°58' E 008°32'1212.1
2014-Sep-30 01:33N 53°50' E 008°48'1312.9
2014-Sep-30 00:33N 53°53' E 009°09'1111.3
2014-Sep-29 23:32N 53°46' E 009°24'1414.6
2014-Sep-29 22:33N 53°34' E 009°39'9 9.6
2014-Sep-29 21:34N 53°32' E 009°55'0 0.0
2014-Sep-29 20:32N 53°32' E 009°55'0 0.0
2014-Sep-29 19:34N 53°32' E 009°55'0 0.0
2014-Sep-29 18:32N 53°32' E 009°55'0 0.0
2014-Sep-29 17:33N 53°32' E 009°55'0 0.0
2014-Sep-29 16:32N 53°32' E 009°55'0 0.0
2014-Sep-29 15:29N 53°32' E 009°55'0 0.0
2014-Sep-29 14:33N 53°32' E 009°55'0 0.0
2014-Sep-29 13:33N 53°32' E 009°55'0 0.0
2014-Sep-29 12:31N 53°32' E 009°55'0 0.0
2014-Sep-29 11:31N 53°32' E 009°55'0 0.0
2014-Sep-29 10:31N 53°32' E 009°55'0 0.0
2014-Sep-29 09:31N 53°32' E 009°55'0 0.0
2014-Sep-29 08:33N 53°32' E 009°55'1 0.6
2014-Sep-29 07:34N 53°32' E 009°54'2 1.6
2014-Sep-29 06:31N 53°32' E 009°57'0 0.0
2014-Sep-29 05:31N 53°32' E 009°57'0 0.0
2014-Sep-29 04:31N 53°32' E 009°57'0 0.0
2014-Sep-29 03:31N 53°32' E 009°57'0 0.0
2014-Sep-29 02:31N 53°32' E 009°57'0 0.0
2014-Sep-29 01:32N 53°32' E 009°57'0 0.0
2014-Sep-29 00:31N 53°32' E 009°57'0 0.0
2014-Sep-28 23:33N 53°32' E 009°57'0 0.0
2014-Sep-28 22:31N 53°32' E 009°57'0 0.0
2014-Sep-28 21:31N 53°32' E 009°57'0 0.0
2014-Sep-28 20:32N 53°32' E 009°57'0 0.0
2014-Sep-28 19:33N 53°32' E 009°57'0 0.0
2014-Sep-28 18:29N 53°32' E 009°57'0 0.0
2014-Sep-28 17:33N 53°32' E 009°57'0 0.0
2014-Sep-28 16:28N 53°32' E 009°57'2 2.4
2014-Sep-28 15:33N 53°32' E 009°53'1212.2
2014-Sep-28 14:33N 53°37' E 009°34'1917.5
2014-Sep-28 13:28N 53°52' E 009°16'4 4.6
2014-Sep-28 12:33N 53°54' E 009°09'1 1.3
2014-Sep-28 11:34N 53°55' E 009°10'0 0.0
2014-Sep-28 10:33N 53°55' E 009°10'1 0.7
2014-Sep-28 09:33N 53°55' E 009°11'5 4.7
2014-Sep-28 08:33N 53°59' E 009°16'9 6.9
2014-Sep-28 07:13N 54°08' E 009°20'4 6.5
2014-Sep-28 06:33N 54°10' E 009°26'5 4.9
2014-Sep-28 05:33N 54°12' E 009°33'4 3.8
2014-Sep-28 04:33N 54°15' E 009°37'5 5.2
2014-Sep-28 03:33N 54°19' E 009°43'5 4.9
2014-Sep-28 02:33N 54°22' E 009°50'5 5.4
2014-Sep-28 01:33N 54°21' E 009°59'6 5.6
2014-Sep-28 00:33N 54°22' E 010°08'2 2.4
2014-Sep-27 23:33N 54°23' E 010°12'1010.0
2014-Sep-27 22:33N 54°31' E 010°22'1010.3
2014-Sep-27 21:33N 54°34' E 010°39'1010.2
2014-Sep-27 20:33N 54°36' E 010°57'9 8.8
2014-Sep-27 19:33N 54°36' E 011°12'1212.4
2014-Sep-27 18:33N 54°30' E 011°31'9 8.7
2014-Sep-27 17:34N 54°27' E 011°45'10 9.6
2014-Sep-27 16:33N 54°26' E 012°01'8 8.0
2014-Sep-27 15:33N 54°31' E 012°13'10 9.5
2014-Sep-27 14:33N 54°39' E 012°22'10 9.6
2014-Sep-27 13:33N 54°44' E 012°36'1010.1
2014-Sep-27 12:33N 54°49' E 012°52'2311.4
2014-Sep-27 10:33N 54°57' E 013°28'1010.1
2014-Sep-27 09:33N 55°00' E 013°45'10 9.8
2014-Sep-27 08:33N 55°04' E 014°01'10 9.7
2014-Sep-27 07:33N 55°10' E 014°13'1010.1
2014-Sep-27 06:33N 55°18' E 014°24'1010.3
2014-Sep-27 05:33N 55°26' E 014°36'1010.0
2014-Sep-27 04:33N 55°31' E 014°51'10 9.9
2014-Sep-27 03:33N 55°37' E 015°06'41 9.9
2014-Sep-26 23:26N 55°57' E 016°09'9 9.9
2014-Sep-26 22:33N 56°01' E 016°22'12912.8
2014-Sep-26 12:29N 57°28' E 019°17'19216.1
2014-Sep-26 00:33N 59°41' E 023°43'8116.2
2014-Sep-25 19:32N 60°05' E 026°17'1413.9
2014-Sep-25 18:33N 60°17' E 026°31'1514.5
2014-Sep-25 17:33N 60°25' E 026°55'0 0.4
2014-Sep-25 16:33N 60°25' E 026°55'0 0.0
2014-Sep-25 15:33N 60°25' E 026°55'0 0.0
2014-Sep-25 14:32N 60°25' E 026°55'0 0.0
2014-Sep-25 13:32N 60°25' E 026°55'0 0.0
2014-Sep-25 12:32N 60°25' E 026°55'0 0.0
2014-Sep-25 11:32N 60°25' E 026°55'0 0.0
2014-Sep-25 10:32N 60°25' E 026°55'0 0.0
2014-Sep-25 09:32N 60°25' E 026°55'0 0.0
2014-Sep-25 08:33N 60°25' E 026°55'0 0.0
2014-Sep-25 07:33N 60°25' E 026°55'0 0.0
2014-Sep-25 06:33N 60°25' E 026°55'0 0.0
2014-Sep-25 05:32N 60°25' E 026°55'0 0.0
2014-Sep-25 04:33N 60°25' E 026°55'0 0.0
2014-Sep-25 03:33N 60°25' E 026°55'0 0.0
2014-Sep-25 02:32N 60°25' E 026°55'0 0.0
2014-Sep-25 01:32N 60°25' E 026°55'0 0.0
2014-Sep-25 00:32N 60°25' E 026°55'0 0.0
2014-Sep-24 23:32N 60°25' E 026°55'0 0.0
2014-Sep-24 22:32N 60°25' E 026°55'0 0.3
2014-Sep-24 21:33N 60°25' E 026°55'4 4.0
2014-Sep-24 20:33N 60°23' E 026°48'1514.8
2014-Sep-24 19:34N 60°14' E 026°25'9 8.7
2014-Sep-24 18:34N 60°06' E 026°33'111 9.2
2014-Sep-24 06:31N 59°54' E 030°14'0 0.0
2014-Sep-24 05:07N 59°54' E 030°14'0 0.0
2014-Sep-24 04:31N 59°54' E 030°14'0 0.0
2014-Sep-24 02:19N 59°54' E 030°14'0 0.0
2014-Sep-24 01:28N 59°54' E 030°14'1 0.2
2014-Sep-23 19:09N 59°53' E 030°12'0 0.0
2014-Sep-23 18:33N 59°53' E 030°12'0 0.0
2014-Sep-23 16:25N 59°53' E 030°12'0 0.0
2014-Sep-23 15:29N 59°53' E 030°12'0 0.0
2014-Sep-23 13:24N 59°53' E 030°12'0 0.0
2014-Sep-23 11:04N 59°53' E 030°12'95 5.7
2014-Sep-22 18:18N 59°57' E 027°02'1417.8
2014-Sep-22 17:30N 59°59' E 026°34'6118.2
2014-Sep-22 14:09N 59°45' E 024°36'1118.3
2014-Sep-22 13:33N 59°42' E 024°15'1918.5
2014-Sep-22 12:33N 59°36' E 023°40'31818.3
2014-Sep-21 19:12N 55°56' E 016°27'5418.7
2014-Sep-21 16:17N 55°30' E 015°03'2018.6
2014-Sep-21 15:11N 55°19' E 014°33'1218.3
2014-Sep-21 14:33N 55°10' E 014°20'5518.1
2014-Sep-21 11:32N 54°48' E 012°53'1918.0
2014-Sep-21 10:30N 54°39' E 012°24'1617.3
2014-Sep-21 09:33N 54°25' E 012°10'1817.8
2014-Sep-21 08:33N 54°27' E 011°39'1918.7
2014-Sep-21 07:33N 54°35' E 011°10'  
Track history (hours):
 
Tides and Currents Weather Stations Pressure Air Temp Water Temp Dewpoint Dewpoint Depression Visibility Wind Speed Wind Dir Waves Ship Positions

Suederoog

Last reported at 2014-Oct-01 02:27 UTC. Time now 2014-Oct-01 10:24 UTC.
Position N 56°25' E 011°30'.

Length 161 m; draft 10.6 m.

Type: Ship (hazmat cat A). MMSI: 236300000.

Date/timePositionNaut miles runAvg speedWind from/ knotsBaromVisibWave heightAir tempDewpointWater temp
2014-Oct-01 02:27N 56°25' E 011°30'1517.1
2014-Oct-01 01:33N 56°38' E 011°43'1615.7
2014-Oct-01 00:33N 56°54' E 011°46'1717.4
2014-Sep-30 23:33N 57°10' E 011°35'1817.6
2014-Sep-30 22:33N 57°26' E 011°24'1717.3
2014-Sep-30 21:34N 57°39' E 011°01'1716.5
2014-Sep-30 20:33N 57°47' E 010°34'1917.7
2014-Sep-30 19:29N 57°47' E 009°59'16516.6
2014-Sep-30 09:33N 55°32' E 007°06'1817.8
2014-Sep-30 08:33N 55°15' E 007°06'1817.8
2014-Sep-30 07:33N 54°57' E 007°06'2518.0
2014-Sep-30 06:10N 54°32' E 007°12'1117.8
2014-Sep-30 05:33N 54°23' E 007°22'1818.0
2014-Sep-30 04:33N 54°09' E 007°41'1817.6
2014-Sep-30 03:33N 54°01' E 008°08'1414.3
2014-Sep-30 02:33N 53°58' E 008°32'1212.1
2014-Sep-30 01:33N 53°50' E 008°48'1312.9
2014-Sep-30 00:33N 53°53' E 009°09'1111.3
2014-Sep-29 23:32N 53°46' E 009°24'1414.6
2014-Sep-29 22:33N 53°34' E 009°39'9 9.6
2014-Sep-29 21:34N 53°32' E 009°55'0 0.0
2014-Sep-29 20:32N 53°32' E 009°55'0 0.0
2014-Sep-29 19:34N 53°32' E 009°55'0 0.0
2014-Sep-29 18:32N 53°32' E 009°55'0 0.0
2014-Sep-29 17:33N 53°32' E 009°55'0 0.0
2014-Sep-29 16:32N 53°32' E 009°55'0 0.0
2014-Sep-29 15:29N 53°32' E 009°55'0 0.0
2014-Sep-29 14:33N 53°32' E 009°55'0 0.0
2014-Sep-29 13:33N 53°32' E 009°55'0 0.0
2014-Sep-29 12:31N 53°32' E 009°55'0 0.0
2014-Sep-29 11:31N 53°32' E 009°55'0 0.0
2014-Sep-29 10:31N 53°32' E 009°55'0 0.0
2014-Sep-29 09:31N 53°32' E 009°55'0 0.0
2014-Sep-29 08:33N 53°32' E 009°55'1 0.6
2014-Sep-29 07:34N 53°32' E 009°54'2 1.6
2014-Sep-29 06:31N 53°32' E 009°57'0 0.0
2014-Sep-29 05:31N 53°32' E 009°57'0 0.0
2014-Sep-29 04:31N 53°32' E 009°57'0 0.0
2014-Sep-29 03:31N 53°32' E 009°57'0 0.0
2014-Sep-29 02:31N 53°32' E 009°57'0 0.0
2014-Sep-29 01:32N 53°32' E 009°57'0 0.0
2014-Sep-29 00:31N 53°32' E 009°57'0 0.0
2014-Sep-28 23:33N 53°32' E 009°57'0 0.0
2014-Sep-28 22:31N 53°32' E 009°57'0 0.0
2014-Sep-28 21:31N 53°32' E 009°57'0 0.0
2014-Sep-28 20:32N 53°32' E 009°57'0 0.0
2014-Sep-28 19:33N 53°32' E 009°57'0 0.0
2014-Sep-28 18:29N 53°32' E 009°57'0 0.0
2014-Sep-28 17:33N 53°32' E 009°57'0 0.0
2014-Sep-28 16:28N 53°32' E 009°57'2 2.4
2014-Sep-28 15:33N 53°32' E 009°53'1212.2
2014-Sep-28 14:33N 53°37' E 009°34'1917.5
2014-Sep-28 13:28N 53°52' E 009°16'4 4.6
2014-Sep-28 12:33N 53°54' E 009°09'1 1.3
2014-Sep-28 11:34N 53°55' E 009°10'0 0.0
2014-Sep-28 10:33N 53°55' E 009°10'1 0.7
2014-Sep-28 09:33N 53°55' E 009°11'5 4.7
2014-Sep-28 08:33N 53°59' E 009°16'9 6.9
2014-Sep-28 07:13N 54°08' E 009°20'4 6.5
2014-Sep-28 06:33N 54°10' E 009°26'5 4.9
2014-Sep-28 05:33N 54°12' E 009°33'4 3.8
2014-Sep-28 04:33N 54°15' E 009°37'5 5.2
2014-Sep-28 03:33N 54°19' E 009°43'5 4.9
2014-Sep-28 02:33N 54°22' E 009°50'5 5.4
2014-Sep-28 01:33N 54°21' E 009°59'6 5.6
2014-Sep-28 00:33N 54°22' E 010°08'2 2.4
2014-Sep-27 23:33N 54°23' E 010°12'1010.0
2014-Sep-27 22:33N 54°31' E 010°22'1010.3
2014-Sep-27 21:33N 54°34' E 010°39'1010.2
2014-Sep-27 20:33N 54°36' E 010°57'9 8.8
2014-Sep-27 19:33N 54°36' E 011°12'1212.4
2014-Sep-27 18:33N 54°30' E 011°31'9 8.7
2014-Sep-27 17:34N 54°27' E 011°45'10 9.6
2014-Sep-27 16:33N 54°26' E 012°01'8 8.0
2014-Sep-27 15:33N 54°31' E 012°13'10 9.5
2014-Sep-27 14:33N 54°39' E 012°22'10 9.6
2014-Sep-27 13:33N 54°44' E 012°36'1010.1
2014-Sep-27 12:33N 54°49' E 012°52'2311.4
2014-Sep-27 10:33N 54°57' E 013°28'1010.1
2014-Sep-27 09:33N 55°00' E 013°45'10 9.8
2014-Sep-27 08:33N 55°04' E 014°01'10 9.7
2014-Sep-27 07:33N 55°10' E 014°13'1010.1
2014-Sep-27 06:33N 55°18' E 014°24'1010.3
2014-Sep-27 05:33N 55°26' E 014°36'1010.0
2014-Sep-27 04:33N 55°31' E 014°51'10 9.9
2014-Sep-27 03:33N 55°37' E 015°06'41 9.9
2014-Sep-26 23:26N 55°57' E 016°09'9 9.9
2014-Sep-26 22:33N 56°01' E 016°22'12912.8
2014-Sep-26 12:29N 57°28' E 019°17'19216.1
2014-Sep-26 00:33N 59°41' E 023°43'8116.2
2014-Sep-25 19:32N 60°05' E 026°17'1413.9
2014-Sep-25 18:33N 60°17' E 026°31'1514.5
2014-Sep-25 17:33N 60°25' E 026°55'0 0.4
2014-Sep-25 16:33N 60°25' E 026°55'0 0.0
2014-Sep-25 15:33N 60°25' E 026°55'0 0.0
2014-Sep-25 14:32N 60°25' E 026°55'0 0.0
2014-Sep-25 13:32N 60°25' E 026°55'0 0.0
2014-Sep-25 12:32N 60°25' E 026°55'0 0.0
2014-Sep-25 11:32N 60°25' E 026°55'0 0.0
2014-Sep-25 10:32N 60°25' E 026°55'0 0.0
2014-Sep-25 09:32N 60°25' E 026°55'0 0.0
2014-Sep-25 08:33N 60°25' E 026°55'0 0.0
2014-Sep-25 07:33N 60°25' E 026°55'0 0.0
2014-Sep-25 06:33N 60°25' E 026°55'0 0.0
2014-Sep-25 05:32N 60°25' E 026°55'0 0.0
2014-Sep-25 04:33N 60°25' E 026°55'0 0.0
2014-Sep-25 03:33N 60°25' E 026°55'0 0.0
2014-Sep-25 02:32N 60°25' E 026°55'0 0.0
2014-Sep-25 01:32N 60°25' E 026°55'0 0.0
2014-Sep-25 00:32N 60°25' E 026°55'0 0.0
2014-Sep-24 23:32N 60°25' E 026°55'0 0.0
2014-Sep-24 22:32N 60°25' E 026°55'0 0.3
2014-Sep-24 21:33N 60°25' E 026°55'4 4.0
2014-Sep-24 20:33N 60°23' E 026°48'1514.8
2014-Sep-24 19:34N 60°14' E 026°25'9 8.7
2014-Sep-24 18:34N 60°06' E 026°33'111 9.2
2014-Sep-24 06:31N 59°54' E 030°14'0 0.0
2014-Sep-24 05:07N 59°54' E 030°14'0 0.0
2014-Sep-24 04:31N 59°54' E 030°14'0 0.0
2014-Sep-24 02:19N 59°54' E 030°14'0 0.0
2014-Sep-24 01:28N 59°54' E 030°14'1 0.2
2014-Sep-23 19:09N 59°53' E 030°12'0 0.0
2014-Sep-23 18:33N 59°53' E 030°12'0 0.0
2014-Sep-23 16:25N 59°53' E 030°12'0 0.0
2014-Sep-23 15:29N 59°53' E 030°12'0 0.0
2014-Sep-23 13:24N 59°53' E 030°12'0 0.0
2014-Sep-23 11:04N 59°53' E 030°12'95 5.7
2014-Sep-22 18:18N 59°57' E 027°02'1417.8
2014-Sep-22 17:30N 59°59' E 026°34'6118.2
2014-Sep-22 14:09N 59°45' E 024°36'1118.3
2014-Sep-22 13:33N 59°42' E 024°15'1918.5
2014-Sep-22 12:33N 59°36' E 023°40'31818.3
2014-Sep-21 19:12N 55°56' E 016°27'5418.7
2014-Sep-21 16:17N 55°30' E 015°03'2018.6
2014-Sep-21 15:11N 55°19' E 014°33'1218.3
2014-Sep-21 14:33N 55°10' E 014°20'5518.1
2014-Sep-21 11:32N 54°48' E 012°53'1918.0
2014-Sep-21 10:30N 54°39' E 012°24'1617.3
2014-Sep-21 09:33N 54°25' E 012°10'1817.8
2014-Sep-21 08:33N 54°27' E 011°39'1918.7
2014-Sep-21 07:33N 54°35' E 011°10'  

Dump ship's entire track history